Flight Track Log - Related Links

Times and Time Zones

All times are in EDT time to prevent confusion due to time zone crossing. See the N172KD flight status page for this flight to view local times or setup timezone preferences in your user account.

Time Position Orientation Groundspeed Altitude Reporting Facility
EDT Latitude Longitude Course Direction KTS MPH feet Rate Location/Type
Fri 02:05:00 PM 33.7688 -78.7582 48° Northeast  Level FlightAware Approximate
Fri 02:06:00 PM 33.7883 -78.7323 48° Northeast  Level FlightAware Approximate
Fri 02:07:00 PM 33.8115 -78.7167 North  Level FlightAware Approximate
Fri 02:08:00 PM 33.8350 -78.6983 40° Northeast  Level FlightAware Approximate
Fri 02:09:00 PM 33.8583 -78.6776 30° Northeast  Level FlightAware Approximate
Fri 02:10:00 PM 33.8835 -78.6602 30° Northeast  Level FlightAware Approximate
Fri 02:11:00 PM 33.9086 -78.6428 30° Northeast  Level FlightAware Approximate
Fri 02:12:00 PM 33.9338 -78.6254 30° Northeast  Level FlightAware Approximate
Fri 02:13:00 PM 33.9590 -78.6080 30° Northeast  Level FlightAware Approximate
Fri 02:14:00 PM 33.9842 -78.5906 30° Northeast  Level FlightAware Approximate
Fri 02:15:00 PM 34.0093 -78.5731 30° Northeast  Level FlightAware Approximate
Fri 02:16:00 PM 34.0345 -78.5557 30° Northeast  Level FlightAware Approximate
Fri 02:17:00 PM 34.0596 -78.5382 30° Northeast  Level FlightAware Approximate
Fri 02:18:00 PM 34.0850 -78.5211 29° Northeast  Level FlightAware Approximate
Fri 02:19:00 PM 34.1104 -78.5042 29° Northeast  Level FlightAware Approximate
Fri 02:20:00 PM 34.1358 -78.4873 29° Northeast  Level FlightAware Approximate
Fri 02:21:00 PM 34.1612 -78.4704 29° Northeast  Level FlightAware Approximate
Fri 02:22:00 PM 34.1866 -78.4534 29° Northeast  Level FlightAware Approximate
Fri 02:23:00 PM 34.2120 -78.4364 29° Northeast  Level FlightAware Approximate
Fri 02:24:00 PM 34.2362 -78.4171 35° Northeast  Level FlightAware Approximate
Fri 02:25:00 PM 34.2601 -78.3972 35° Northeast  Level FlightAware Approximate
Fri 02:26:00 PM 34.2840 -78.3772 35° Northeast  Level FlightAware Approximate
Fri 02:27:00 PM 34.3079 -78.3573 35° Northeast  Level FlightAware Approximate
Fri 02:28:00 PM 34.3325 -78.3387 30° Northeast  Level FlightAware Approximate
Fri 02:29:00 PM 34.3575 -78.3209 30° Northeast  Level FlightAware Approximate
Fri 02:30:00 PM 34.3825 -78.3031 30° Northeast  Level FlightAware Approximate
Fri 02:31:00 PM 34.4075 -78.2852 30° Northeast  Level FlightAware Approximate
Fri 02:32:00 PM 34.4325 -78.2674 30° Northeast  Level FlightAware Approximate
Fri 02:33:00 PM 34.4575 -78.2495 31° Northeast  Level FlightAware Approximate
Fri 02:34:00 PM 34.4825 -78.2316 31° Northeast  Level FlightAware Approximate
Fri 02:35:00 PM 34.5075 -78.2137 31° Northeast  Level FlightAware Approximate
Fri 02:36:00 PM 34.5325 -78.1958 31° Northeast  Level FlightAware Approximate
Fri 02:37:00 PM 34.5574 -78.1778 32° Northeast  Level FlightAware Approximate
Fri 02:38:00 PM 34.5821 -78.1593 32° Northeast  Level FlightAware Approximate
Fri 02:39:00 PM 34.6068 -78.1407 32° Northeast  Level FlightAware Approximate
Fri 02:40:00 PM 34.6315 -78.1222 32° Northeast  Level FlightAware Approximate
Fri 02:41:00 PM 34.6572 -78.1029 32° Northeast  Level FlightAware Approximate
Fri 02:42:00 PM 34.6829 -78.0836 32° Northeast  Level FlightAware Approximate
Fri 02:43:00 PM 34.7089 -78.0648 31° Northeast  Level FlightAware Approximate
Fri 02:44:00 PM 34.7348 -78.0460 31° Northeast  Level FlightAware Approximate
Fri 02:45:00 PM 34.7607 -78.0272 31° Northeast  Level FlightAware Approximate
Fri 02:46:00 PM 34.7866 -78.0083 31° Northeast  Level FlightAware Approximate
Fri 02:47:00 PM 34.8125 -77.9894 31° Northeast  Level FlightAware Approximate
Fri 02:48:00 PM 34.8385 -77.9706 31° Northeast  Level FlightAware Approximate
Fri 02:48:45 PM 34.7642 -78.0469 10° North 118 136 9,000  Level Washington Center
Fri 02:49:00 PM 34.8644 -77.9517 31° Northeast  Level FlightAware Approximate
Fri 02:49:03 PM 34.7706 -78.0444 18° North 118 136 9,000  Level Washington Center
Fri 02:50:00 PM 34.8938 -77.9446 North  Level FlightAware Approximate
Fri 02:50:03 PM 34.8044 -78.0203 30° Northeast 124 143 9,000  Level Washington Center
Fri 02:51:00 PM 34.9236 -77.9386 North  Level FlightAware Approximate
Fri 02:51:04 PM 34.8300 -77.9983 35° Northeast 119 137 9,000  Level Washington Center
Fri 02:52:00 PM 34.9534 -77.9326 10° North  Level FlightAware Approximate
Fri 02:52:04 PM 34.8575 -77.9789 30° Northeast 112 129 9,000  Level Washington Center
Fri 02:53:00 PM 34.9832 -77.9264 10° North  Level FlightAware Approximate
Fri 02:53:05 PM 34.8889 -77.9672 17° North 115 132 9,000  Level Washington Center
Fri 02:54:00 PM 35.0130 -77.9201 10° North  Level FlightAware Approximate
Fri 02:54:12 PM 34.9206 -77.9578 14° North 110 127 9,000  Level Washington Center
Fri 02:55:12 PM 34.9497 -77.9511 11° North 111 128 9,000  Level Washington Center
Fri 02:56:13 PM 34.9792 -77.9444 11° North 109 125 9,000  Level Washington Center
Fri 02:57:13 PM 35.0106 -77.9353 13° North 110 127 9,000  Level Washington Center
Fri 02:58:14 PM 35.0442 -77.9286 North 111 128 9,000  Level Washington Center
Fri 02:59:15 PM 35.0733 -77.9244 North 113 130 9,000  Level Washington Center
Fri 03:00:16 PM 35.1069 -77.9150 13° North 113 130 9,000  Level Washington Center
Fri 03:01:16 PM 35.1342 -77.9108 North 112 129 9,000  Level Washington Center
Fri 03:02:11 PM 35.1636 -77.9042 10° North 110 127 9,000  Level Washington Center
Fri 03:03:12 PM 35.1928 -77.8972 11° North 110 127 9,000  Level Washington Center
Fri 03:04:10 PM 35.2242 -77.8906 10° North 106 122 9,000  Level Washington Center
Fri 03:05:11 PM 35.2517 -77.8836 12° North 109 125 9,000  Level Washington Center
Fri 03:06:12 PM 35.2831 -77.8744 13° North 108 124 9,000  Level Washington Center
Fri 03:07:18 PM 35.3186 -77.8653 12° North 114 131 9,000  Level Washington Center
Fri 03:08:20 PM 35.3481 -77.8583 11° North 119 137 9,000  Level Washington Center
Fri 03:09:20 PM 35.3794 -77.8492 13° North 113 130 9,000  Level Washington Center
Fri 03:10:18 PM 35.4089 -77.8422 11° North 124 143 9,000  Level Washington Center
Fri 03:11:19 PM 35.4422 -77.8356 North 124 143 9,000  Level Washington Center
Fri 03:12:17 PM 35.4717 -77.8289 10° North 124 143 9,000  Level Washington Center
Fri 03:13:18 PM 35.5031 -77.8194 14° North 119 137 9,000  Level Washington Center
Fri 03:14:19 PM 35.5325 -77.8100 15° North 114 131 9,000  Level Washington Center
Fri 03:15:17 PM 35.5639 -77.8058 North 108 124 9,000  Level Washington Center
Fri 03:16:17 PM 35.5953 -77.7964 14° North 108 124 9,000  Level Washington Center
Fri 03:17:18 PM 35.6267 -77.7897 10° North 108 124 9,000  Level Washington Center
Fri 03:18:19 PM 35.6583 -77.7803 14° North 108 124 9,000  Level Washington Center
Fri 03:19:17 PM 35.6897 -77.7736 10° North 108 124 9,000  Level Washington Center
Fri 03:20:18 PM 35.7275 -77.7642 11° North 113 130 9,000  Level Washington Center
Fri 03:21:19 PM 35.7589 -77.7600 North 113 130 9,000  Level Washington Center
Fri 03:22:17 PM 35.7903 -77.7506 14° North 113 130 9,000  Level Washington Center
Fri 03:23:17 PM 35.8217 -77.7411 14° North 113 130 9,000  Level Washington Center
Fri 03:24:17 PM 35.8553 -77.7369 North 113 130 9,000  Level Washington Center
Fri 03:25:18 PM 35.8844 -77.7275 15° North 113 130 9,000  Level Washington Center
Fri 03:26:19 PM 35.9161 -77.7181 14° North 113 130 9,000  Level Washington Center
Fri 03:27:19 PM 35.9453 -77.7111 11° North 108 124 9,000  Level Washington Center
Fri 03:28:17 PM 35.9747 -77.7044 10° North 108 124 9,000  Level Washington Center
Fri 03:29:18 PM 36.0042 -77.6897 22° Northeast 108 124 9,000  Level Washington Center
Fri 03:30:19 PM 36.0336 -77.6778 18° North 108 124 9,000  Level Washington Center
Fri 03:31:19 PM 36.0608 -77.6656 20° North 108 124 9,000  Level Washington Center
Fri 03:32:17 PM 36.0883 -77.6533 20° North 103 119 9,000  Level Washington Center
Fri 03:33:17 PM 36.1197 -77.6414 17° North 109 125 9,000  Level Washington Center
Fri 03:34:18 PM 36.1450 -77.6267 25° Northeast 103 119 9,000  Level Washington Center
Fri 03:35:18 PM 36.1764 -77.6169 14° North 103 119 9,000  Level Washington Center
Fri 03:36:19 PM 36.2058 -77.6025 22° Northeast 103 119 9,000  Level Washington Center
Fri 03:37:17 PM 36.2375 -77.5931 14° North 109 125 9,000  Level Washington Center
Fri 03:38:18 PM 36.2669 -77.5783 22° Northeast 109 125 9,000  Level Washington Center
Fri 03:39:19 PM 36.2942 -77.5633 24° Northeast 109 125 9,000  Level Washington Center
Fri 03:40:18 PM 36.3236 -77.5486 22° Northeast 109 125 9,000  Level Washington Center
Fri 03:41:19 PM 36.3553 -77.5339 21° North 109 125 9,000  Level Washington Center
Fri 03:42:19 PM 36.3847 -77.5192 22° Northeast 109 125 9,000  Level Washington Center
Fri 03:43:19 PM 36.4142 -77.5044 22° Northeast 109 125 9,000  Level Washington Center
Fri 03:44:17 PM 36.4436 -77.4922 18° North 114 131 9,000  Level Washington Center
Fri 03:45:17 PM 36.4731 -77.4750 25° Northeast 114 131 9,000  Level Washington Center
Fri 03:46:18 PM 36.5025 -77.4603 22° Northeast 114 131 9,000  Level Washington Center
Fri 03:47:18 PM 36.5319 -77.4478 19° North 114 131 9,000  Level Washington Center
Fri 03:48:18 PM 36.5614 -77.4331 22° Northeast 114 131 9,000 50 Level Washington Center
Fri 03:49:19 PM 36.5886 -77.4208 20° North 114 131 9,100  Climbing Washington Center
Fri 03:50:18 PM 36.6161 -77.4033 27° Northeast 114 131 9,000 -50 Descending Washington Center
Fri 03:51:18 PM 36.6433 -77.3911 20° North 114 131 9,000  Level Washington Center
Fri 03:52:19 PM 36.6728 -77.3761 22° Northeast 114 131 9,000  Level Washington Center
Fri 03:53:17 PM 36.7000 -77.3639 20° North 114 131 9,000  Level Washington Center
Fri 03:54:18 PM 36.7317 -77.3464 24° Northeast 114 131 9,000  Level Washington Center
Fri 03:55:19 PM 36.7608 -77.3342 19° North 114 131 9,000  Level Washington Center
Fri 03:56:19 PM 36.7903 -77.3219 18° North 109 125 9,000  Level Washington Center
Fri 03:57:18 PM 36.8197 -77.3069 22° Northeast 109 125 9,000  Level Washington Center
Fri 03:58:18 PM 36.8492 -77.2919 22° Northeast 109 125 9,000  Level Washington Center
Fri 03:59:19 PM 36.8786 -77.2797 18° North 109 125 9,000  Level Washington Center
Fri 04:00:17 PM 36.9081 -77.2622 25° Northeast 109 125 9,000  Level Washington Center
Fri 04:01:18 PM 36.9353 -77.2472 24° Northeast 109 125 9,000  Level Washington Center
Fri 04:02:19 PM 36.9647 -77.2322 22° Northeast 109 125 9,000  Level Washington Center
Fri 04:03:19 PM 36.9922 -77.2172 24° Northeast 109 125 9,000  Level Washington Center
Fri 04:04:18 PM 37.0194 -77.2047 20° North 109 125 9,000  Level Washington Center
Fri 04:05:18 PM 37.0486 -77.1922 19° North 109 125 9,000  Level Washington Center
Fri 04:06:18 PM 37.0781 -77.1772 22° Northeast 109 125 9,000  Level Washington Center
Fri 04:08:41 PM 37.1500 -77.1333 26° Northeast 118 136 9,000  Level Potomac TRACON
Fri 04:09:41 PM 37.1833 -77.1333 360° North 122 140 9,000  Level Potomac TRACON
Fri 04:10:42 PM 37.2167 -77.1167 22° Northeast 123 142 9,000  Level Potomac TRACON
Fri 04:11:48 PM 37.2500 -77.1000 22° Northeast 121 139 9,000  Level Potomac TRACON
Fri 04:12:48 PM 37.2833 -77.0833 22° Northeast 116 133 9,000  Level Potomac TRACON
Fri 04:13:49 PM 37.3000 -77.0667 38° Northeast 121 139 9,000  Level Potomac TRACON
Fri 04:14:08 PM 37.3133 -77.0619 16° North 115 132 9,000  Level Washington Center
Fri 04:15:05 PM 37.3406 -77.0469 24° Northeast 111 128 9,000  Level Washington Center
Fri 04:16:07 PM 37.3700 -77.0317 22° Northeast 114 131 9,000  Level Washington Center
Fri 04:17:07 PM 37.3972 -77.0167 24° Northeast 119 137 9,000 -50 Level Washington Center
Fri 04:18:07 PM 37.4308 -77.0067 13° North 119 137 8,900  Descending Washington Center
Fri 04:19:05 PM 37.4561 -76.9861 33° Northeast 111 128 9,000 51 Climbing Washington Center
Fri 04:20:05 PM 37.4894 -76.9711 20° North 116 133 9,000  Level Washington Center
Fri 04:21:06 PM 37.5167 -76.9611 16° North 110 127 9,000  Level Washington Center
Fri 04:22:06 PM 37.5419 -76.9433 29° Northeast 116 133 9,000  Level Washington Center
Fri 04:23:05 PM 37.5714 -76.9308 19° North 116 133 9,000  Level Washington Center
Fri 04:24:05 PM 37.5986 -76.9156 24° Northeast 116 133 9,000  Level Washington Center
Fri 04:25:06 PM 37.6300 -76.9003 21° North 116 133 9,000  Level Washington Center
Fri 04:26:07 PM 37.6594 -76.8850 22° Northeast 118 136 9,000  Level Washington Center
Fri 04:27:07 PM 37.6908 -76.8697 21° North 118 136 9,000  Level Washington Center
Fri 04:28:08 PM 37.7203 -76.8572 19° North 108 124 9,000  Level Washington Center
Fri 04:29:06 PM 37.7475 -76.8419 24° Northeast 114 131 9,000  Level Washington Center
Fri 04:30:07 PM 37.7747 -76.8267 24° Northeast 114 131 9,000  Level Washington Center
Fri 04:31:05 PM 37.8042 -76.8139 19° North 114 131 9,000  Level Washington Center
Fri 04:32:05 PM 37.8356 -76.7986 21° North 114 131 9,000  Level Washington Center
Fri 04:33:07 PM 37.8650 -76.7861 19° North 114 131 9,000  Level Washington Center
Fri 04:34:07 PM 37.8942 -76.7706 23° Northeast 114 131 9,000  Level Washington Center
Fri 04:35:05 PM 37.9236 -76.7528 25° Northeast 114 131 9,000  Level Washington Center
Fri 04:36:05 PM 37.9531 -76.7372 23° Northeast 114 131 9,000  Level Washington Center
Fri 04:37:06 PM 37.9822 -76.7219 22° Northeast 114 131 9,000  Level Washington Center
Fri 04:38:06 PM 38.0094 -76.7092 20° North 114 131 9,000  Level Washington Center
Fri 04:39:07 PM 38.0367 -76.6911 28° Northeast 109 125 9,000  Level Washington Center
Fri 04:40:07 PM 38.0661 -76.6758 22° Northeast 109 125 9,000  Level Washington Center
Fri 04:41:05 PM 38.0997 -76.6578 23° Northeast 109 125 9,000  Level Washington Center
Fri 04:42:05 PM 38.1289 -76.6369 29° Northeast 114 131 9,000  Level Washington Center
Fri 04:43:06 PM 38.1564 -76.6164 30° Northeast 114 131 9,000  Level Washington Center
Fri 04:44:06 PM 38.1836 -76.5981 28° Northeast 114 131 9,000  Level Washington Center
Fri 04:45:07 PM 38.2108 -76.5775 31° Northeast 114 131 9,000  Level Washington Center
Fri 04:46:05 PM 38.2403 -76.5592 26° Northeast 114 131 9,000  Level Washington Center
Fri 04:47:05 PM 38.2675 -76.5386 31° Northeast 114 131 9,000  Level Washington Center
Fri 04:48:06 PM 38.2969 -76.5178 29° Northeast 114 131 9,000  Level Washington Center
Fri 04:49:06 PM 38.3242 -76.5022 24° Northeast 109 125 9,000  Level Washington Center
Fri 04:50:06 PM 38.3514 -76.4814 31° Northeast 109 125 9,000  Level Washington Center
Fri 04:51:07 PM 38.3806 -76.4658 23° Northeast 114 131 9,000  Level Washington Center
Fri 04:52:07 PM 38.4100 -76.4475 26° Northeast 109 125 9,000  Level Washington Center
Fri 04:53:05 PM 38.4372 -76.4267 31° Northeast 109 125 9,000  Level Washington Center
Fri 04:54:05 PM 38.4664 -76.4083 26° Northeast 109 125 9,000  Level Washington Center
Fri 04:55:05 PM 38.4936 -76.3903 27° Northeast 109 125 9,000  Level Washington Center
Fri 04:56:06 PM 38.5208 -76.3692 31° Northeast 114 131 9,000  Level Washington Center
Fri 04:57:06 PM 38.5522 -76.3617 11° North 109 125 9,000  Level Washington Center
Fri 04:58:07 PM 38.5794 -76.3644 355° North 103 119 9,000  Level Washington Center
Fri 04:59:05 PM 38.6064 -76.3594 North 103 119 9,000  Level Washington Center
Fri 05:00:06 PM 38.6358 -76.3572 North 103 119 9,000  Level Washington Center
Fri 05:01:06 PM 38.6628 -76.3519 North 103 119 9,000 -246 Level Washington Center
Fri 05:02:08 PM 38.6942 -76.3525 359° North 103 119 8,500 -540 Descending Washington Center
Fri 05:04:37 PM 38.7833 -76.3500 North 114 131 7,100 -586 Descending Potomac TRACON
Fri 05:05:43 PM 38.8167 -76.3500 360° North 110 127 6,400 -645 Descending Potomac TRACON
Fri 05:06:38 PM 38.8333 -76.3333 38° Northeast 111 128 5,800 -645 Descending Potomac TRACON
Fri 05:07:44 PM 38.8667 -76.3333 360° North 112 129 5,100 -667 Descending Potomac TRACON
Fri 05:08:44 PM 38.9000 -76.3333 360° North 112 129 4,400 -750 Descending Potomac TRACON
Fri 05:09:44 PM 38.9333 -76.3333 360° North 107 123 3,600 -694 Descending Potomac TRACON
Fri 05:10:45 PM 38.9667 -76.3333 360° North 111 128 3,000 -347 Descending Potomac TRACON
Fri 05:11:45 PM 39.0000 -76.3333 360° North 111 128 2,900 -200 Descending Potomac TRACON
Fri 05:12:45 PM 39.0333 -76.3333 360° North 104 120 2,600 -347 Descending Potomac TRACON
Fri 05:13:46 PM 39.0500 -76.3333 360° North 98 113 2,200 -313 Descending Potomac TRACON
Fri 05:14:40 PM 39.0833 -76.3333 360° North 87 100 2,000 -300 Descending Potomac TRACON
Fri 05:15:46 PM 39.1000 -76.3333 360° North 93 107 1,600 -286 Descending Potomac TRACON
Fri 05:16:46 PM 39.1333 -76.3500 339° North 95 109 1,400 -99 Descending Potomac TRACON
Fri 05:17:47 PM 39.1500 -76.3500 360° North 101 116 1,400  Level Potomac TRACON
Fri 05:18:41 PM 39.1833 -76.3500 360° North 100 115 1,400 -52 Level Potomac TRACON
Fri 05:19:42 PM 39.2167 -76.3667 339° North 102 117 1,300 -142 Descending Potomac TRACON
Fri 05:20:48 PM 39.2333 -76.3667 360° North 99 114 1,100 -143 Descending Potomac TRACON
Fri 05:21:48 PM 39.2667 -76.3667 360° North 98 113 1,000 -149 Descending Potomac TRACON
Fri 05:22:49 PM 39.2833 -76.3667 360° North 88 101 800 -261 Descending Potomac TRACON
Fri 05:23:43 PM 39.3000 -76.3833 322° Northwest 65 75 500 -333 Descending Potomac TRACON
Fri 05:25:00 PM 39.3167 -76.4000 North  Level FlightAware Approximate
Fri 05:32:00 PM 39.3257 -76.4138 North  Level Estimated
Fri 05:33:00 PM 39.3257 -76.4138 North  Level Estimated
Fri 05:34:00 PM 39.3257 -76.4138 North  Level Estimated
Fri 05:35:00 PM 39.3257 -76.4138 North  Level Estimated

Login

Don't have an account? Register now (free) for customized features, flight alerts, and more!